sensor_id;sensor_type;location;lat;lon;timestamp;temperature;humidity
10512;DHT22;5304;48.604;2.096;2023-05-10T00:01:01;10.80;99.90
10512;DHT22;5304;48.604;2.096;2023-05-10T00:03:45;10.70;99.90
10512;DHT22;5304;48.604;2.096;2023-05-10T00:06:30;10.60;99.90
10512;DHT22;5304;48.604;2.096;2023-05-10T00:09:14;10.60;99.90
10512;DHT22;5304;48.604;2.096;2023-05-10T00:11:59;10.50;99.90
10512;DHT22;5304;48.604;2.096;2023-05-10T00:14:44;10.50;99.90
10512;DHT22;5304;48.604;2.096;2023-05-10T00:17:29;10.40;99.90
10512;DHT22;5304;48.604;2.096;2023-05-10T00:20:13;10.30;99.90
10512;DHT22;5304;48.604;2.096;2023-05-10T00:22:58;10.30;99.90
10512;DHT22;5304;48.604;2.096;2023-05-10T00:25:42;10.30;99.90
10512;DHT22;5304;48.604;2.096;2023-05-10T00:28:27;10.30;99.90
10512;DHT22;5304;48.604;2.096;2023-05-10T00:31:13;10.40;99.90
10512;DHT22;5304;48.604;2.096;2023-05-10T00:33:59;10.50;99.90
10512;DHT22;5304;48.604;2.096;2023-05-10T00:36:43;10.60;99.90
10512;DHT22;5304;48.604;2.096;2023-05-10T00:39:28;10.60;99.90
10512;DHT22;5304;48.604;2.096;2023-05-10T00:42:13;10.70;99.90
10512;DHT22;5304;48.604;2.096;2023-05-10T00:44:58;10.60;99.90
10512;DHT22;5304;48.604;2.096;2023-05-10T00:47:42;10.80;99.90
10512;DHT22;5304;48.604;2.096;2023-05-10T00:50:27;10.80;99.90
10512;DHT22;5304;48.604;2.096;2023-05-10T00:53:11;10.80;99.90
10512;DHT22;5304;48.604;2.096;2023-05-10T00:55:56;10.70;99.90
10512;DHT22;5304;48.604;2.096;2023-05-10T00:58:41;10.60;99.90
10512;DHT22;5304;48.604;2.096;2023-05-10T01:01:25;10.60;99.90
10512;DHT22;5304;48.604;2.096;2023-05-10T01:04:11;10.70;99.90
10512;DHT22;5304;48.604;2.096;2023-05-10T01:06:57;10.70;99.90
10512;DHT22;5304;48.604;2.096;2023-05-10T01:09:41;10.60;99.90
10512;DHT22;5304;48.604;2.096;2023-05-10T01:12:26;10.60;99.90
10512;DHT22;5304;48.604;2.096;2023-05-10T01:15:11;10.60;99.90
10512;DHT22;5304;48.604;2.096;2023-05-10T01:17:56;10.60;99.90
10512;DHT22;5304;48.604;2.096;2023-05-10T01:20:43;10.60;99.90
10512;DHT22;5304;48.604;2.096;2023-05-10T01:23:42;10.60;99.90
10512;DHT22;5304;48.604;2.096;2023-05-10T01:36:12;10.50;99.90
10512;DHT22;5304;48.604;2.096;2023-05-10T01:39:20;10.40;99.90
10512;DHT22;5304;48.604;2.096;2023-05-10T01:42:16;10.40;99.90
10512;DHT22;5304;48.604;2.096;2023-05-10T01:45:41;10.30;99.90
10512;DHT22;5304;48.604;2.096;2023-05-10T01:48:29;10.20;99.90
10512;DHT22;5304;48.604;2.096;2023-05-10T01:51:23;10.20;99.90
10512;DHT22;5304;48.604;2.096;2023-05-10T01:54:08;10.30;99.90
10512;DHT22;5304;48.604;2.096;2023-05-10T01:56:59;10.40;99.90
10512;DHT22;5304;48.604;2.096;2023-05-10T01:59:45;10.40;99.90
10512;DHT22;5304;48.604;2.096;2023-05-10T02:02:35;10.40;99.90
10512;DHT22;5304;48.604;2.096;2023-05-10T02:05:21;10.30;99.90
10512;DHT22;5304;48.604;2.096;2023-05-10T02:08:08;10.40;99.90
10512;DHT22;5304;48.604;2.096;2023-05-10T02:10:56;10.30;99.90
10512;DHT22;5304;48.604;2.096;2023-05-10T02:13:42;10.30;99.90
10512;DHT22;5304;48.604;2.096;2023-05-10T02:16:27;10.30;99.90
10512;DHT22;5304;48.604;2.096;2023-05-10T02:19:15;10.30;99.90
10512;DHT22;5304;48.604;2.096;2023-05-10T02:22:02;10.30;99.90
10512;DHT22;5304;48.604;2.096;2023-05-10T02:24:48;10.30;99.90
10512;DHT22;5304;48.604;2.096;2023-05-10T02:27:34;10.40;99.90
10512;DHT22;5304;48.604;2.096;2023-05-10T02:30:22;10.40;99.90
10512;DHT22;5304;48.604;2.096;2023-05-10T02:33:07;10.30;99.90
10512;DHT22;5304;48.604;2.096;2023-05-10T02:35:52;10.30;99.90
10512;DHT22;5304;48.604;2.096;2023-05-10T02:38:37;10.40;99.90
10512;DHT22;5304;48.604;2.096;2023-05-10T02:41:23;10.40;99.90
10512;DHT22;5304;48.604;2.096;2023-05-10T02:44:09;10.30;99.90
10512;DHT22;5304;48.604;2.096;2023-05-10T02:46:55;10.30;99.90
10512;DHT22;5304;48.604;2.096;2023-05-10T02:49:40;10.30;99.90
10512;DHT22;5304;48.604;2.096;2023-05-10T02:52:30;10.40;99.90
10512;DHT22;5304;48.604;2.096;2023-05-10T02:55:31;10.40;99.90
10512;DHT22;5304;48.604;2.096;2023-05-10T02:58:16;10.40;99.90
10512;DHT22;5304;48.604;2.096;2023-05-10T03:01:03;10.30;99.90
10512;DHT22;5304;48.604;2.096;2023-05-10T03:03:47;10.30;99.90
10512;DHT22;5304;48.604;2.096;2023-05-10T03:06:32;10.40;99.90
10512;DHT22;5304;48.604;2.096;2023-05-10T03:09:17;10.50;99.90
10512;DHT22;5304;48.604;2.096;2023-05-10T03:21:26;10.40;99.90
10512;DHT22;5304;48.604;2.096;2023-05-10T03:24:13;10.50;99.90
10512;DHT22;5304;48.604;2.096;2023-05-10T03:27:00;10.60;99.90
10512;DHT22;5304;48.604;2.096;2023-05-10T03:29:47;10.60;99.90
10512;DHT22;5304;48.604;2.096;2023-05-10T03:32:32;10.50;99.90
10512;DHT22;5304;48.604;2.096;2023-05-10T03:35:18;10.60;99.90
10512;DHT22;5304;48.604;2.096;2023-05-10T03:38:03;10.60;99.90
10512;DHT22;5304;48.604;2.096;2023-05-10T03:40:48;10.60;99.90
10512;DHT22;5304;48.604;2.096;2023-05-10T03:43:32;10.60;99.90
10512;DHT22;5304;48.604;2.096;2023-05-10T03:46:17;10.70;99.90
10512;DHT22;5304;48.604;2.096;2023-05-10T03:49:01;10.70;99.90
10512;DHT22;5304;48.604;2.096;2023-05-10T03:51:46;10.70;99.90
10512;DHT22;5304;48.604;2.096;2023-05-10T03:54:30;10.70;99.90
10512;DHT22;5304;48.604;2.096;2023-05-10T03:57:15;10.80;99.90
10512;DHT22;5304;48.604;2.096;2023-05-10T03:59:59;10.70;99.90
10512;DHT22;5304;48.604;2.096;2023-05-10T04:02:44;10.70;99.90
10512;DHT22;5304;48.604;2.096;2023-05-10T04:05:28;10.70;99.90
10512;DHT22;5304;48.604;2.096;2023-05-10T04:08:12;10.70;99.90
10512;DHT22;5304;48.604;2.096;2023-05-10T04:11:11;10.80;99.90
10512;DHT22;5304;48.604;2.096;2023-05-10T04:13:55;10.80;99.90
10512;DHT22;5304;48.604;2.096;2023-05-10T04:16:40;10.80;99.90
10512;DHT22;5304;48.604;2.096;2023-05-10T04:19:29;10.90;99.90
10512;DHT22;5304;48.604;2.096;2023-05-10T04:22:15;11.00;99.90
10512;DHT22;5304;48.604;2.096;2023-05-10T04:25:00;11.00;99.90
10512;DHT22;5304;48.604;2.096;2023-05-10T04:27:45;10.90;99.90
10512;DHT22;5304;48.604;2.096;2023-05-10T04:30:29;10.90;99.90
10512;DHT22;5304;48.604;2.096;2023-05-10T04:33:13;10.90;99.90
10512;DHT22;5304;48.604;2.096;2023-05-10T04:35:58;10.80;99.90
10512;DHT22;5304;48.604;2.096;2023-05-10T04:38:42;10.90;99.90
10512;DHT22;5304;48.604;2.096;2023-05-10T04:41:27;10.90;99.90
10512;DHT22;5304;48.604;2.096;2023-05-10T04:44:12;10.90;99.90
10512;DHT22;5304;48.604;2.096;2023-05-10T04:46:57;10.90;99.90
10512;DHT22;5304;48.604;2.096;2023-05-10T04:49:42;10.90;99.90
10512;DHT22;5304;48.604;2.096;2023-05-10T04:52:26;10.90;99.90
10512;DHT22;5304;48.604;2.096;2023-05-10T04:55:11;10.90;99.90
10512;DHT22;5304;48.604;2.096;2023-05-10T04:57:55;10.90;99.90
10512;DHT22;5304;48.604;2.096;2023-05-10T05:00:41;10.90;99.90
10512;DHT22;5304;48.604;2.096;2023-05-10T05:03:26;11.00;99.90
10512;DHT22;5304;48.604;2.096;2023-05-10T05:06:12;11.00;99.90
10512;DHT22;5304;48.604;2.096;2023-05-10T05:08:56;11.00;99.90
10512;DHT22;5304;48.604;2.096;2023-05-10T05:11:41;11.00;99.90
10512;DHT22;5304;48.604;2.096;2023-05-10T05:14:25;11.00;99.90
10512;DHT22;5304;48.604;2.096;2023-05-10T05:17:10;11.00;99.90
10512;DHT22;5304;48.604;2.096;2023-05-10T05:19:55;11.10;99.90
10512;DHT22;5304;48.604;2.096;2023-05-10T05:22:39;11.10;99.90
10512;DHT22;5304;48.604;2.096;2023-05-10T05:25:24;11.10;99.90
10512;DHT22;5304;48.604;2.096;2023-05-10T05:28:09;11.20;99.90
10512;DHT22;5304;48.604;2.096;2023-05-10T05:30:53;11.20;99.90
10512;DHT22;5304;48.604;2.096;2023-05-10T05:33:38;11.30;99.90
10512;DHT22;5304;48.604;2.096;2023-05-10T05:36:22;11.30;99.90
10512;DHT22;5304;48.604;2.096;2023-05-10T05:39:07;11.30;99.90
10512;DHT22;5304;48.604;2.096;2023-05-10T05:41:51;11.40;99.90
10512;DHT22;5304;48.604;2.096;2023-05-10T05:44:36;11.50;99.90
10512;DHT22;5304;48.604;2.096;2023-05-10T05:47:20;11.50;99.90
10512;DHT22;5304;48.604;2.096;2023-05-10T05:50:05;11.50;99.90
10512;DHT22;5304;48.604;2.096;2023-05-10T05:52:50;11.40;99.90
10512;DHT22;5304;48.604;2.096;2023-05-10T05:55:35;11.40;99.90
10512;DHT22;5304;48.604;2.096;2023-05-10T05:58:20;11.50;99.90
10512;DHT22;5304;48.604;2.096;2023-05-10T06:01:04;11.60;99.90
10512;DHT22;5304;48.604;2.096;2023-05-10T06:03:49;11.70;99.90
10512;DHT22;5304;48.604;2.096;2023-05-10T06:06:34;11.60;99.90
10512;DHT22;5304;48.604;2.096;2023-05-10T06:09:18;11.60;99.90
10512;DHT22;5304;48.604;2.096;2023-05-10T06:12:02;11.70;99.90
10512;DHT22;5304;48.604;2.096;2023-05-10T06:14:47;11.70;99.90
10512;DHT22;5304;48.604;2.096;2023-05-10T06:17:31;11.60;99.90
10512;DHT22;5304;48.604;2.096;2023-05-10T06:20:15;11.60;99.90
10512;DHT22;5304;48.604;2.096;2023-05-10T06:23:00;11.60;99.90
10512;DHT22;5304;48.604;2.096;2023-05-10T06:25:45;11.60;99.90
10512;DHT22;5304;48.604;2.096;2023-05-10T06:28:29;11.80;99.90
10512;DHT22;5304;48.604;2.096;2023-05-10T06:31:16;11.80;99.90
10512;DHT22;5304;48.604;2.096;2023-05-10T06:34:00;11.90;99.90
10512;DHT22;5304;48.604;2.096;2023-05-10T06:36:45;11.90;99.90
10512;DHT22;5304;48.604;2.096;2023-05-10T06:39:29;12.00;99.90
10512;DHT22;5304;48.604;2.096;2023-05-10T06:42:14;12.10;99.90
10512;DHT22;5304;48.604;2.096;2023-05-10T06:44:58;12.10;99.90
10512;DHT22;5304;48.604;2.096;2023-05-10T06:47:43;12.10;99.90
10512;DHT22;5304;48.604;2.096;2023-05-10T06:50:27;12.20;99.90
10512;DHT22;5304;48.604;2.096;2023-05-10T06:53:11;12.30;99.90
10512;DHT22;5304;48.604;2.096;2023-05-10T06:55:58;12.30;99.90
10512;DHT22;5304;48.604;2.096;2023-05-10T06:58:43;12.30;99.90
10512;DHT22;5304;48.604;2.096;2023-05-10T07:01:28;12.40;99.90
10512;DHT22;5304;48.604;2.096;2023-05-10T07:04:12;12.40;99.90
10512;DHT22;5304;48.604;2.096;2023-05-10T07:06:58;12.30;99.90
10512;DHT22;5304;48.604;2.096;2023-05-10T07:09:42;12.30;99.90
10512;DHT22;5304;48.604;2.096;2023-05-10T07:12:27;12.30;99.90
10512;DHT22;5304;48.604;2.096;2023-05-10T07:15:11;12.30;99.90
10512;DHT22;5304;48.604;2.096;2023-05-10T07:17:56;12.30;99.90
10512;DHT22;5304;48.604;2.096;2023-05-10T07:20:40;12.20;99.90
10512;DHT22;5304;48.604;2.096;2023-05-10T07:23:25;12.30;99.90
10512;DHT22;5304;48.604;2.096;2023-05-10T07:26:09;12.20;99.90
10512;DHT22;5304;48.604;2.096;2023-05-10T07:28:55;12.20;99.90
10512;DHT22;5304;48.604;2.096;2023-05-10T07:31:40;12.30;99.90
10512;DHT22;5304;48.604;2.096;2023-05-10T07:34:27;12.40;99.90
10512;DHT22;5304;48.604;2.096;2023-05-10T07:37:12;12.40;99.90
10512;DHT22;5304;48.604;2.096;2023-05-10T07:39:57;12.60;99.90
10512;DHT22;5304;48.604;2.096;2023-05-10T07:42:41;12.70;99.90
10512;DHT22;5304;48.604;2.096;2023-05-10T07:45:25;12.80;99.90
10512;DHT22;5304;48.604;2.096;2023-05-10T07:48:10;12.80;99.90
10512;DHT22;5304;48.604;2.096;2023-05-10T07:50:57;12.90;99.90
10512;DHT22;5304;48.604;2.096;2023-05-10T07:53:41;13.00;99.90
10512;DHT22;5304;48.604;2.096;2023-05-10T07:56:27;13.10;99.90
10512;DHT22;5304;48.604;2.096;2023-05-10T07:59:16;13.10;99.90
10512;DHT22;5304;48.604;2.096;2023-05-10T08:02:01;13.10;99.90
10512;DHT22;5304;48.604;2.096;2023-05-10T08:04:45;13.10;99.90
10512;DHT22;5304;48.604;2.096;2023-05-10T08:07:30;13.00;99.90
10512;DHT22;5304;48.604;2.096;2023-05-10T08:10:15;13.00;99.90
10512;DHT22;5304;48.604;2.096;2023-05-10T08:12:59;12.70;99.90
10512;DHT22;5304;48.604;2.096;2023-05-10T08:15:43;12.70;99.90
10512;DHT22;5304;48.604;2.096;2023-05-10T08:18:28;12.80;99.90
10512;DHT22;5304;48.604;2.096;2023-05-10T08:21:13;12.70;99.90
10512;DHT22;5304;48.604;2.096;2023-05-10T08:23:58;12.60;99.90
10512;DHT22;5304;48.604;2.096;2023-05-10T08:26:43;12.60;99.90
10512;DHT22;5304;48.604;2.096;2023-05-10T08:29:27;12.60;99.90
10512;DHT22;5304;48.604;2.096;2023-05-10T08:32:13;12.70;99.90
10512;DHT22;5304;48.604;2.096;2023-05-10T08:34:57;12.70;99.90
10512;DHT22;5304;48.604;2.096;2023-05-10T08:37:42;12.90;99.90
10512;DHT22;5304;48.604;2.096;2023-05-10T08:40:26;13.10;99.90
10512;DHT22;5304;48.604;2.096;2023-05-10T08:43:12;13.30;99.90
10512;DHT22;5304;48.604;2.096;2023-05-10T08:46:00;13.30;99.90
10512;DHT22;5304;48.604;2.096;2023-05-10T08:48:46;13.30;99.90
10512;DHT22;5304;48.604;2.096;2023-05-10T08:51:36;13.30;99.90
10512;DHT22;5304;48.604;2.096;2023-05-10T08:54:21;13.20;99.90
10512;DHT22;5304;48.604;2.096;2023-05-10T08:57:06;13.10;99.90
10512;DHT22;5304;48.604;2.096;2023-05-10T08:59:51;13.00;99.90
10512;DHT22;5304;48.604;2.096;2023-05-10T09:02:37;13.00;99.90
10512;DHT22;5304;48.604;2.096;2023-05-10T09:05:21;13.10;99.90
10512;DHT22;5304;48.604;2.096;2023-05-10T09:08:06;13.10;99.90
10512;DHT22;5304;48.604;2.096;2023-05-10T09:10:54;13.10;99.90
10512;DHT22;5304;48.604;2.096;2023-05-10T09:13:39;13.20;99.90
10512;DHT22;5304;48.604;2.096;2023-05-10T09:16:24;13.30;99.90
10512;DHT22;5304;48.604;2.096;2023-05-10T09:19:08;13.40;99.90
10512;DHT22;5304;48.604;2.096;2023-05-10T09:21:53;13.40;99.90
10512;DHT22;5304;48.604;2.096;2023-05-10T09:24:38;13.50;99.90
10512;DHT22;5304;48.604;2.096;2023-05-10T09:27:29;13.60;99.90
10512;DHT22;5304;48.604;2.096;2023-05-10T09:30:31;13.80;99.90
10512;DHT22;5304;48.604;2.096;2023-05-10T09:33:18;13.90;99.90
10512;DHT22;5304;48.604;2.096;2023-05-10T09:36:08;14.00;99.90
10512;DHT22;5304;48.604;2.096;2023-05-10T09:38:53;14.10;99.90
10512;DHT22;5304;48.604;2.096;2023-05-10T09:41:37;14.10;99.90
10512;DHT22;5304;48.604;2.096;2023-05-10T09:44:22;14.00;99.90
10512;DHT22;5304;48.604;2.096;2023-05-10T09:47:07;13.90;99.90
10512;DHT22;5304;48.604;2.096;2023-05-10T09:49:52;13.90;99.90
10512;DHT22;5304;48.604;2.096;2023-05-10T09:52:54;13.90;99.90
10512;DHT22;5304;48.604;2.096;2023-05-10T09:55:42;14.00;99.90
10512;DHT22;5304;48.604;2.096;2023-05-10T09:58:30;14.10;99.90
10512;DHT22;5304;48.604;2.096;2023-05-10T10:01:15;14.10;99.90
10512;DHT22;5304;48.604;2.096;2023-05-10T10:04:03;14.10;99.90
10512;DHT22;5304;48.604;2.096;2023-05-10T10:06:58;14.30;99.90
10512;DHT22;5304;48.604;2.096;2023-05-10T10:09:44;14.40;99.90
10512;DHT22;5304;48.604;2.096;2023-05-10T10:12:28;14.50;99.90
10512;DHT22;5304;48.604;2.096;2023-05-10T10:15:13;14.80;99.90
10512;DHT22;5304;48.604;2.096;2023-05-10T10:17:58;14.80;99.90
10512;DHT22;5304;48.604;2.096;2023-05-10T10:20:43;15.00;99.90
10512;DHT22;5304;48.604;2.096;2023-05-10T10:23:28;15.10;99.90
10512;DHT22;5304;48.604;2.096;2023-05-10T10:26:13;15.20;99.90
10512;DHT22;5304;48.604;2.096;2023-05-10T10:34:47;15.70;99.90
10512;DHT22;5304;48.604;2.096;2023-05-10T10:37:44;16.30;99.90
10512;DHT22;5304;48.604;2.096;2023-05-10T10:40:33;16.50;99.90
10512;DHT22;5304;48.604;2.096;2023-05-10T10:43:25;16.30;99.90
10512;DHT22;5304;48.604;2.096;2023-05-10T10:46:14;15.90;99.90
10512;DHT22;5304;48.604;2.096;2023-05-10T10:49:10;15.80;99.90
10512;DHT22;5304;48.604;2.096;2023-05-10T10:52:23;15.70;99.90
10512;DHT22;5304;48.604;2.096;2023-05-10T10:55:14;15.90;99.90
10512;DHT22;5304;48.604;2.096;2023-05-10T10:58:01;16.20;99.90
10512;DHT22;5304;48.604;2.096;2023-05-10T11:00:48;16.00;99.90
10512;DHT22;5304;48.604;2.096;2023-05-10T11:03:32;16.00;99.90
10512;DHT22;5304;48.604;2.096;2023-05-10T11:06:29;16.20;99.90
10512;DHT22;5304;48.604;2.096;2023-05-10T11:09:13;16.30;99.90
10512;DHT22;5304;48.604;2.096;2023-05-10T11:11:58;16.50;99.90
10512;DHT22;5304;48.604;2.096;2023-05-10T11:14:50;16.70;99.90
10512;DHT22;5304;48.604;2.096;2023-05-10T11:17:35;16.40;99.90
10512;DHT22;5304;48.604;2.096;2023-05-10T11:20:19;16.10;99.90
10512;DHT22;5304;48.604;2.096;2023-05-10T11:23:12;15.80;99.90
10512;DHT22;5304;48.604;2.096;2023-05-10T11:26:00;15.70;99.90
10512;DHT22;5304;48.604;2.096;2023-05-10T11:28:47;15.90;99.90
10512;DHT22;5304;48.604;2.096;2023-05-10T11:31:32;16.30;99.90
10512;DHT22;5304;48.604;2.096;2023-05-10T11:34:27;16.80;99.90
10512;DHT22;5304;48.604;2.096;2023-05-10T11:37:11;17.00;99.90
10512;DHT22;5304;48.604;2.096;2023-05-10T11:39:56;17.10;99.90
10512;DHT22;5304;48.604;2.096;2023-05-10T11:42:40;17.00;99.90
10512;DHT22;5304;48.604;2.096;2023-05-10T11:45:25;17.00;99.90
10512;DHT22;5304;48.604;2.096;2023-05-10T11:48:10;16.90;99.90
10512;DHT22;5304;48.604;2.096;2023-05-10T11:50:57;16.70;99.90
10512;DHT22;5304;48.604;2.096;2023-05-10T11:53:42;16.40;99.90
10512;DHT22;5304;48.604;2.096;2023-05-10T11:56:26;16.20;99.90
10512;DHT22;5304;48.604;2.096;2023-05-10T11:59:14;16.30;99.90
10512;DHT22;5304;48.604;2.096;2023-05-10T12:01:59;16.60;99.90
10512;DHT22;5304;48.604;2.096;2023-05-10T12:04:43;16.90;99.90
10512;DHT22;5304;48.604;2.096;2023-05-10T12:07:28;17.10;99.90
10512;DHT22;5304;48.604;2.096;2023-05-10T12:10:13;17.20;99.90
10512;DHT22;5304;48.604;2.096;2023-05-10T12:12:58;17.20;99.90
10512;DHT22;5304;48.604;2.096;2023-05-10T12:15:43;17.10;99.90
10512;DHT22;5304;48.604;2.096;2023-05-10T12:18:28;17.10;99.90
10512;DHT22;5304;48.604;2.096;2023-05-10T12:21:12;17.20;99.90
10512;DHT22;5304;48.604;2.096;2023-05-10T12:24:02;17.30;99.90
10512;DHT22;5304;48.604;2.096;2023-05-10T12:26:47;17.40;99.90
10512;DHT22;5304;48.604;2.096;2023-05-10T12:29:32;17.50;99.90
10512;DHT22;5304;48.604;2.096;2023-05-10T12:32:16;18.00;99.90
10512;DHT22;5304;48.604;2.096;2023-05-10T12:35:03;18.40;99.90
10512;DHT22;5304;48.604;2.096;2023-05-10T12:37:48;18.50;99.90
10512;DHT22;5304;48.604;2.096;2023-05-10T12:40:32;18.60;99.90
10512;DHT22;5304;48.604;2.096;2023-05-10T12:43:17;18.50;99.90
10512;DHT22;5304;48.604;2.096;2023-05-10T12:46:16;18.30;99.90
10512;DHT22;5304;48.604;2.096;2023-05-10T12:49:00;17.90;99.90
10512;DHT22;5304;48.604;2.096;2023-05-10T12:51:45;17.60;99.90
10512;DHT22;5304;48.604;2.096;2023-05-10T12:54:29;17.70;99.90
10512;DHT22;5304;48.604;2.096;2023-05-10T12:57:14;18.40;99.90
10512;DHT22;5304;48.604;2.096;2023-05-10T12:59:58;18.50;99.90
10512;DHT22;5304;48.604;2.096;2023-05-10T13:02:43;18.30;99.90
10512;DHT22;5304;48.604;2.096;2023-05-10T13:05:28;18.00;99.90
10512;DHT22;5304;48.604;2.096;2023-05-10T13:08:12;17.80;99.90
10512;DHT22;5304;48.604;2.096;2023-05-10T13:10:57;18.20;99.90
10512;DHT22;5304;48.604;2.096;2023-05-10T13:13:41;18.60;99.90
10512;DHT22;5304;48.604;2.096;2023-05-10T13:16:25;18.70;99.90
10512;DHT22;5304;48.604;2.096;2023-05-10T13:19:10;18.50;99.90
10512;DHT22;5304;48.604;2.096;2023-05-10T13:21:55;18.40;99.90
10512;DHT22;5304;48.604;2.096;2023-05-10T13:24:40;18.40;99.90
10512;DHT22;5304;48.604;2.096;2023-05-10T13:27:24;18.60;99.90
10512;DHT22;5304;48.604;2.096;2023-05-10T13:30:09;18.50;99.90
10512;DHT22;5304;48.604;2.096;2023-05-10T13:32:57;18.70;99.90
10512;DHT22;5304;48.604;2.096;2023-05-10T13:35:41;18.70;99.90
10512;DHT22;5304;48.604;2.096;2023-05-10T13:38:25;18.70;99.90
10512;DHT22;5304;48.604;2.096;2023-05-10T13:41:10;18.50;99.90
10512;DHT22;5304;48.604;2.096;2023-05-10T13:43:54;18.30;99.90
10512;DHT22;5304;48.604;2.096;2023-05-10T13:46:39;18.10;99.90
10512;DHT22;5304;48.604;2.096;2023-05-10T13:49:24;17.80;99.90
10512;DHT22;5304;48.604;2.096;2023-05-10T13:52:09;18.20;99.90
10512;DHT22;5304;48.604;2.096;2023-05-10T13:54:54;18.50;99.90
10512;DHT22;5304;48.604;2.096;2023-05-10T13:57:41;18.50;99.90
10512;DHT22;5304;48.604;2.096;2023-05-10T14:00:27;18.80;99.90
10512;DHT22;5304;48.604;2.096;2023-05-10T14:03:11;18.80;99.90
10512;DHT22;5304;48.604;2.096;2023-05-10T14:05:56;19.20;99.90
10512;DHT22;5304;48.604;2.096;2023-05-10T14:08:40;19.40;99.90
10512;DHT22;5304;48.604;2.096;2023-05-10T14:11:25;19.30;99.90
10512;DHT22;5304;48.604;2.096;2023-05-10T14:14:10;19.60;99.90
10512;DHT22;5304;48.604;2.096;2023-05-10T14:16:54;19.70;99.90
10512;DHT22;5304;48.604;2.096;2023-05-10T14:19:38;19.90;99.90
10512;DHT22;5304;48.604;2.096;2023-05-10T14:22:23;19.40;99.90
10512;DHT22;5304;48.604;2.096;2023-05-10T14:25:08;19.50;99.90
10512;DHT22;5304;48.604;2.096;2023-05-10T14:27:52;19.50;99.90
10512;DHT22;5304;48.604;2.096;2023-05-10T14:30:38;19.40;99.90
10512;DHT22;5304;48.604;2.096;2023-05-10T14:33:23;19.40;99.90
10512;DHT22;5304;48.604;2.096;2023-05-10T14:36:08;19.40;99.90
10512;DHT22;5304;48.604;2.096;2023-05-10T14:38:53;19.30;99.90
10512;DHT22;5304;48.604;2.096;2023-05-10T14:41:37;19.30;99.90
10512;DHT22;5304;48.604;2.096;2023-05-10T14:44:23;19.20;99.90
10512;DHT22;5304;48.604;2.096;2023-05-10T14:47:07;18.80;99.90
10512;DHT22;5304;48.604;2.096;2023-05-10T14:49:51;18.50;99.90
10512;DHT22;5304;48.604;2.096;2023-05-10T14:52:36;18.20;99.90
10512;DHT22;5304;48.604;2.096;2023-05-10T14:55:21;18.00;99.90
10512;DHT22;5304;48.604;2.096;2023-05-10T14:58:05;17.80;99.90
10512;DHT22;5304;48.604;2.096;2023-05-10T15:00:49;17.60;99.90
10512;DHT22;5304;48.604;2.096;2023-05-10T15:03:34;17.50;99.90
10512;DHT22;5304;48.604;2.096;2023-05-10T15:06:23;17.40;99.90
10512;DHT22;5304;48.604;2.096;2023-05-10T15:09:09;17.30;99.90
10512;DHT22;5304;48.604;2.096;2023-05-10T15:11:54;17.20;99.90
10512;DHT22;5304;48.604;2.096;2023-05-10T15:14:39;16.90;99.90
10512;DHT22;5304;48.604;2.096;2023-05-10T15:17:23;16.60;99.90
10512;DHT22;5304;48.604;2.096;2023-05-10T15:20:08;16.40;99.90
10512;DHT22;5304;48.604;2.096;2023-05-10T15:22:52;16.20;99.90
10512;DHT22;5304;48.604;2.096;2023-05-10T15:25:37;16.00;99.90
10512;DHT22;5304;48.604;2.096;2023-05-10T15:28:21;15.90;99.90
10512;DHT22;5304;48.604;2.096;2023-05-10T15:31:06;15.70;99.90
10512;DHT22;5304;48.604;2.096;2023-05-10T15:33:50;15.30;99.90
10512;DHT22;5304;48.604;2.096;2023-05-10T15:36:35;15.20;99.90
10512;DHT22;5304;48.604;2.096;2023-05-10T15:39:19;15.10;99.90
10512;DHT22;5304;48.604;2.096;2023-05-10T15:42:04;15.00;99.90
10512;DHT22;5304;48.604;2.096;2023-05-10T15:44:48;15.00;99.90
10512;DHT22;5304;48.604;2.096;2023-05-10T15:47:34;15.00;99.90
10512;DHT22;5304;48.604;2.096;2023-05-10T15:50:18;15.00;99.90
10512;DHT22;5304;48.604;2.096;2023-05-10T15:53:03;15.00;99.90
10512;DHT22;5304;48.604;2.096;2023-05-10T15:55:47;15.00;99.90
10512;DHT22;5304;48.604;2.096;2023-05-10T15:58:32;15.00;99.90
10512;DHT22;5304;48.604;2.096;2023-05-10T16:01:16;15.00;99.90
10512;DHT22;5304;48.604;2.096;2023-05-10T16:04:00;15.00;99.90
10512;DHT22;5304;48.604;2.096;2023-05-10T16:06:45;15.20;99.90
10512;DHT22;5304;48.604;2.096;2023-05-10T16:09:29;15.30;99.90
10512;DHT22;5304;48.604;2.096;2023-05-10T16:12:14;15.40;99.90
10512;DHT22;5304;48.604;2.096;2023-05-10T16:14:59;15.50;99.90
10512;DHT22;5304;48.604;2.096;2023-05-10T16:17:43;15.50;99.90
10512;DHT22;5304;48.604;2.096;2023-05-10T16:20:27;15.40;99.90
10512;DHT22;5304;48.604;2.096;2023-05-10T16:23:13;15.30;99.90
10512;DHT22;5304;48.604;2.096;2023-05-10T16:25:58;15.20;99.90
10512;DHT22;5304;48.604;2.096;2023-05-10T16:28:42;15.20;99.90
10512;DHT22;5304;48.604;2.096;2023-05-10T16:31:27;15.20;99.90
10512;DHT22;5304;48.604;2.096;2023-05-10T16:34:11;15.10;99.90
10512;DHT22;5304;48.604;2.096;2023-05-10T16:36:56;15.10;99.90
10512;DHT22;5304;48.604;2.096;2023-05-10T16:39:40;15.00;99.90
10512;DHT22;5304;48.604;2.096;2023-05-10T16:42:26;15.00;99.90
10512;DHT22;5304;48.604;2.096;2023-05-10T16:45:11;15.20;99.90
10512;DHT22;5304;48.604;2.096;2023-05-10T16:47:56;15.30;99.90
10512;DHT22;5304;48.604;2.096;2023-05-10T16:50:43;15.40;99.90
10512;DHT22;5304;48.604;2.096;2023-05-10T16:53:27;15.50;99.90
10512;DHT22;5304;48.604;2.096;2023-05-10T16:56:13;15.60;99.90
10512;DHT22;5304;48.604;2.096;2023-05-10T16:58:58;15.60;99.90
10512;DHT22;5304;48.604;2.096;2023-05-10T17:01:43;15.70;99.90
10512;DHT22;5304;48.604;2.096;2023-05-10T17:04:28;15.80;99.90
10512;DHT22;5304;48.604;2.096;2023-05-10T17:07:13;15.90;99.90
10512;DHT22;5304;48.604;2.096;2023-05-10T17:09:58;16.00;99.90
10512;DHT22;5304;48.604;2.096;2023-05-10T17:12:42;16.00;99.90
10512;DHT22;5304;48.604;2.096;2023-05-10T17:15:27;16.10;99.90
10512;DHT22;5304;48.604;2.096;2023-05-10T17:18:12;16.20;99.90
10512;DHT22;5304;48.604;2.096;2023-05-10T17:20:57;16.20;99.90
10512;DHT22;5304;48.604;2.096;2023-05-10T17:23:41;16.20;99.90
10512;DHT22;5304;48.604;2.096;2023-05-10T17:26:26;16.10;99.90
10512;DHT22;5304;48.604;2.096;2023-05-10T17:29:11;16.10;99.90
10512;DHT22;5304;48.604;2.096;2023-05-10T17:31:57;15.90;99.90
10512;DHT22;5304;48.604;2.096;2023-05-10T17:34:42;15.80;99.90
10512;DHT22;5304;48.604;2.096;2023-05-10T17:37:27;15.70;99.90
10512;DHT22;5304;48.604;2.096;2023-05-10T17:40:13;15.70;99.90
10512;DHT22;5304;48.604;2.096;2023-05-10T17:42:57;15.70;99.90
10512;DHT22;5304;48.604;2.096;2023-05-10T17:45:41;15.70;99.90
10512;DHT22;5304;48.604;2.096;2023-05-10T17:48:27;15.70;99.90
10512;DHT22;5304;48.604;2.096;2023-05-10T17:51:11;15.60;99.90
10512;DHT22;5304;48.604;2.096;2023-05-10T17:53:56;15.50;99.90
10512;DHT22;5304;48.604;2.096;2023-05-10T17:56:40;15.50;99.90
10512;DHT22;5304;48.604;2.096;2023-05-10T17:59:24;15.60;99.90
10512;DHT22;5304;48.604;2.096;2023-05-10T18:02:09;15.50;99.90
10512;DHT22;5304;48.604;2.096;2023-05-10T18:04:53;15.30;99.90
10512;DHT22;5304;48.604;2.096;2023-05-10T18:07:37;15.40;99.90